createdAt,value
2022-09-28T00:02:11.965Z,98.56
2022-09-28T00:05:15.156Z,98.26
2022-09-28T00:08:17.945Z,98.13
2022-09-28T00:11:22.726Z,98.13
2022-09-28T00:14:26.404Z,98.49
2022-09-28T00:17:29.428Z,98.21
2022-09-28T00:20:32.024Z,98.19
2022-09-28T00:23:56.230Z,98.16
2022-09-28T00:27:01.399Z,98.34
2022-09-28T00:30:04.671Z,98.46
2022-09-28T00:33:07.300Z,98.44
2022-09-28T00:36:10.177Z,98.44
2022-09-28T00:39:15.542Z,98.28
2022-09-28T00:42:21.466Z,98.39
2022-09-28T00:45:26.783Z,98.44
2022-09-28T00:48:34.319Z,98.34
2022-09-28T00:51:40.999Z,98.22
2022-09-28T00:54:47.513Z,98.08
2022-09-28T00:57:55.983Z,97.99
2022-09-28T01:00:59.743Z,98.18
2022-09-28T01:04:04.130Z,98.03
2022-09-28T01:07:09.185Z,97.88
2022-09-28T01:10:13.179Z,97.45
2022-09-28T01:13:17.665Z,97.49
2022-09-28T01:16:23.650Z,97.51
2022-09-28T01:19:47.790Z,97.39
2022-09-28T01:22:53.887Z,97.50
2022-09-28T01:26:25.448Z,97.94
2022-09-28T01:29:34.162Z,98.09
2022-09-28T01:32:46.470Z,98.57
2022-09-28T01:35:55.659Z,98.66
2022-09-28T01:39:05.611Z,98.64
2022-09-28T01:42:19.943Z,98.62
2022-09-28T01:46:09.547Z,98.55
2022-09-28T01:49:21.550Z,97.98
2022-09-28T01:52:31.749Z,97.82
2022-09-28T01:55:41.879Z,98.19
2022-09-28T01:59:20.460Z,98.42
2022-09-28T02:02:32.585Z,98.83
2022-09-28T02:05:49.272Z,98.79
2022-09-28T02:08:57.887Z,98.66
2022-09-28T02:12:13.289Z,98.51
2022-09-28T02:15:23.123Z,98.16
2022-09-28T02:18:26.058Z,97.79
2022-09-28T02:21:52.666Z,97.70
2022-09-28T02:25:13.812Z,97.44
2022-09-28T02:28:16.566Z,97.66
2022-09-28T02:31:19.542Z,97.75
2022-09-28T02:34:22.567Z,97.75
2022-09-28T02:37:27.857Z,97.10
2022-09-28T02:40:33.744Z,96.75
2022-09-28T02:43:58.412Z,96.88
2022-09-28T02:47:26.179Z,96.97
2022-09-28T02:51:00.502Z,97.16
2022-09-28T02:54:18.928Z,97.50
2022-09-28T02:57:46.510Z,97.22
2022-09-28T03:01:03.297Z,97.11
2022-09-28T03:04:12.106Z,97.30
2022-09-28T03:07:33.483Z,97.37
2022-09-28T03:10:47.312Z,97.70
2022-09-28T03:13:51.848Z,97.65
2022-09-28T03:16:55.065Z,97.84
2022-09-28T03:19:57.703Z,97.77
2022-09-28T03:23:23.159Z,98.05
2022-09-28T03:26:23.978Z,98.14
2022-09-28T03:29:26.815Z,98.43
2022-09-28T03:32:29.938Z,98.10
2022-09-28T03:35:32.849Z,97.82
2022-09-28T03:38:35.558Z,97.72
2022-09-28T03:41:38.519Z,97.59
2022-09-28T03:44:41.314Z,97.67
2022-09-28T03:47:48.709Z,97.76
2022-09-28T03:50:56.051Z,97.81
2022-09-28T03:53:58.925Z,97.55
2022-09-28T03:57:01.687Z,97.51
2022-09-28T04:00:06.221Z,97.52
2022-09-28T04:03:16.271Z,97.54
2022-09-28T04:06:19.168Z,97.59
2022-09-28T04:09:21.800Z,97.72
2022-09-28T04:12:24.772Z,97.86
2022-09-28T04:15:27.469Z,97.82
2022-09-28T04:18:31.589Z,97.81
2022-09-28T04:21:37.697Z,97.81
2022-09-28T04:24:43.487Z,97.90
2022-09-28T04:28:04.978Z,98.00
2022-09-28T04:31:13.380Z,98.17
2022-09-28T04:34:21.551Z,98.12
2022-09-28T04:37:24.988Z,98.29
2022-09-28T04:40:27.780Z,98.42
2022-09-28T04:43:32.141Z,98.24
2022-09-28T04:46:35.807Z,98.39
2022-09-28T04:49:40.035Z,98.32
2022-09-28T04:52:42.757Z,98.24
2022-09-28T04:55:45.748Z,98.21
2022-09-28T04:58:52.608Z,97.79
2022-09-28T05:01:56.054Z,97.81
2022-09-28T05:05:00.118Z,98.27
2022-09-28T05:08:03.120Z,98.25
2022-09-28T05:11:08.013Z,97.95
2022-09-28T05:14:12.092Z,98.13
2022-09-28T05:17:15.139Z,98.20
2022-09-28T05:20:19.619Z,97.63
2022-09-28T05:23:22.165Z,97.42
2022-09-28T05:26:25.408Z,97.36
2022-09-28T05:29:31.946Z,97.65
2022-09-28T05:32:42.419Z,97.79
2022-09-28T05:35:49.797Z,97.54
2022-09-28T05:38:55.486Z,97.57
2022-09-28T05:41:58.260Z,97.51
2022-09-28T05:45:01.167Z,98.13
2022-09-28T05:48:03.882Z,97.54
2022-09-28T05:51:06.800Z,97.55
2022-09-28T05:54:09.481Z,97.46
2022-09-28T05:57:14.550Z,97.36
2022-09-28T06:00:21.422Z,97.49
2022-09-28T06:03:25.377Z,96.33
2022-09-28T06:06:28.156Z,96.57
2022-09-28T06:09:32.155Z,96.66
2022-09-28T06:12:35.550Z,96.99
2022-09-28T06:15:42.294Z,96.59
2022-09-28T06:18:46.156Z,96.39
2022-09-28T06:21:49.549Z,96.05
2022-09-28T06:24:52.147Z,95.59
2022-09-28T06:27:56.755Z,95.82
2022-09-28T06:31:01.155Z,95.52
2022-09-28T06:34:04.655Z,94.93
2022-09-28T06:37:07.281Z,95.09
2022-09-28T06:40:10.867Z,94.80
2022-09-28T06:43:15.471Z,94.29
2022-09-28T06:46:23.808Z,93.41
2022-09-28T06:49:30.273Z,92.68
2022-09-28T06:52:34.914Z,91.61
2022-09-28T06:55:40.728Z,90.65
2022-09-28T06:58:43.808Z,90.80
2022-09-28T07:01:46.767Z,90.24
2022-09-28T07:04:52.247Z,89.46
2022-09-28T07:08:02.035Z,89.55
2022-09-28T07:11:08.821Z,88.45
2022-09-28T07:14:24.056Z,87.54
2022-09-28T07:17:42.997Z,86.21
2022-09-28T07:20:57.086Z,87.17
2022-09-28T07:24:01.148Z,87.33
2022-09-28T07:27:06.243Z,87.81
2022-09-28T07:30:09.926Z,87.43
2022-09-28T07:33:15.943Z,87.26
2022-09-28T07:36:20.897Z,85.92
2022-09-28T07:39:24.788Z,83.90
2022-09-28T07:42:29.968Z,83.58
2022-09-28T07:45:35.904Z,73.30
2022-09-28T07:48:43.974Z,71.42
2022-09-28T07:51:46.831Z,65.73
2022-09-28T07:54:52.183Z,70.17
2022-09-28T07:58:02.284Z,70.17
2022-09-28T08:01:11.818Z,66.02
2022-09-28T08:04:15.682Z,68.94
2022-09-28T08:07:24.242Z,64.90
2022-09-28T08:10:29.229Z,65.61
2022-09-28T08:13:32.443Z,67.33
2022-09-28T08:16:35.471Z,67.03
2022-09-28T08:19:58.157Z,64.96
2022-09-28T08:23:08.780Z,64.24
2022-09-28T08:26:15.359Z,62.60
2022-09-28T08:29:19.116Z,63.42
2022-09-28T08:32:26.446Z,63.75
2022-09-28T08:35:29.676Z,63.94
2022-09-28T08:38:33.585Z,62.44
2022-09-28T08:41:53.623Z,62.75
2022-09-28T08:45:06.208Z,60.24
2022-09-28T08:48:56.907Z,60.32
2022-09-28T08:52:13.873Z,60.74
2022-09-28T08:55:28.730Z,57.76
2022-09-28T08:58:37.924Z,59.33
2022-09-28T09:01:48.584Z,58.75
2022-09-28T09:04:52.713Z,59.62
2022-09-28T09:08:33.225Z,59.09
2022-09-28T09:12:14.701Z,57.56
2022-09-28T09:15:36.399Z,57.97
2022-09-28T09:19:02.930Z,57.71
2022-09-28T09:22:16.907Z,57.87
2022-09-28T09:25:38.309Z,58.41
2022-09-28T09:29:02.147Z,59.45
2022-09-28T09:32:14.591Z,58.08
2022-09-28T09:35:58.951Z,55.83
2022-09-28T09:39:17.933Z,55.81
2022-09-28T09:42:44.639Z,55.97
2022-09-28T09:46:14.790Z,56.88
2022-09-28T09:49:34.752Z,55.53
2022-09-28T09:52:57.338Z,56.42
2022-09-28T09:56:11.369Z,55.65
2022-09-28T09:59:21.916Z,54.87
2022-09-28T10:02:39.296Z,56.17
2022-09-28T10:06:08.139Z,54.70
2022-09-28T10:09:22.463Z,56.30
2022-09-28T10:12:26.344Z,54.58
2022-09-28T10:15:32.030Z,54.69
2022-09-28T10:18:37.024Z,54.80
2022-09-28T10:21:43.624Z,55.35
2022-09-28T10:24:52.491Z,55.04
2022-09-28T10:27:57.755Z,54.08
2022-09-28T10:31:01.808Z,53.82
2022-09-28T10:34:06.143Z,54.32
2022-09-28T10:37:11.255Z,51.98
2022-09-28T10:40:30.592Z,52.87
2022-09-28T10:43:38.607Z,53.29
2022-09-28T10:46:41.826Z,52.19
2022-09-28T10:49:48.523Z,52.09
2022-09-28T10:52:51.622Z,52.17
2022-09-28T10:56:05.331Z,52.60
2022-09-28T10:59:29.034Z,51.91
2022-09-28T11:02:36.602Z,53.37
2022-09-28T11:05:40.103Z,52.50
2022-09-28T11:08:45.584Z,52.39
2022-09-28T11:11:48.870Z,52.85
2022-09-28T11:15:01.531Z,52.73
2022-09-28T11:18:32.435Z,52.09
2022-09-28T11:21:44.107Z,50.23
2022-09-28T11:24:48.315Z,49.52
2022-09-28T11:27:51.091Z,50.03
2022-09-28T11:30:54.665Z,50.51
2022-09-28T11:34:15.064Z,50.66
2022-09-28T11:37:31.342Z,51.22
2022-09-28T11:40:43.731Z,51.15
2022-09-28T11:44:00.392Z,51.44
2022-09-28T11:47:41.839Z,50.68
2022-09-28T11:50:53.511Z,51.46
2022-09-28T11:54:05.219Z,50.89
2022-09-28T11:57:15.939Z,49.31
2022-09-28T12:00:23.408Z,48.17
2022-09-28T12:03:46.454Z,47.77
2022-09-28T12:07:07.837Z,48.05
2022-09-28T12:10:20.981Z,47.08
2022-09-28T12:13:29.744Z,48.17
2022-09-28T12:17:07.376Z,48.07
2022-09-28T12:20:29.298Z,47.76
2022-09-28T12:23:36.051Z,47.03
2022-09-28T12:26:48.818Z,48.29
2022-09-28T12:30:16.806Z,46.75
2022-09-28T12:33:19.461Z,46.61
2022-09-28T12:36:43.976Z,48.04
2022-09-28T12:39:58.945Z,49.00
2022-09-28T12:43:10.632Z,49.83
2022-09-28T12:46:50.880Z,49.83
2022-09-28T12:50:54.562Z,50.44
2022-09-28T12:54:30.563Z,49.67
2022-09-28T12:57:46.706Z,51.40
2022-09-28T13:00:49.376Z,49.97
2022-09-28T13:04:04.567Z,49.61
2022-09-28T13:07:30.144Z,49.45
2022-09-28T13:10:56.203Z,50.10
2022-09-28T13:14:20.676Z,49.29
2022-09-28T13:17:42.169Z,49.80
2022-09-28T13:20:50.443Z,49.59
2022-09-28T13:24:08.746Z,48.65
2022-09-28T13:27:29.123Z,49.59
2022-09-28T13:30:35.447Z,49.49
2022-09-28T13:33:39.834Z,50.03
2022-09-28T13:36:47.820Z,49.98
2022-09-28T13:39:52.832Z,50.04
2022-09-28T13:43:19.608Z,50.48
2022-09-28T13:47:02.644Z,51.17
2022-09-28T13:50:25.687Z,51.19
2022-09-28T13:53:39.624Z,51.30
2022-09-28T13:57:13.332Z,51.01
2022-09-28T14:00:45.573Z,50.62
2022-09-28T14:03:55.148Z,51.42
2022-09-28T14:07:10.750Z,52.42
2022-09-28T14:10:27.248Z,52.99
2022-09-28T14:13:42.295Z,53.90
2022-09-28T14:16:45.440Z,54.14
2022-09-28T14:19:55.450Z,54.68
2022-09-28T14:23:30.590Z,54.14
2022-09-28T14:27:01.950Z,54.74
2022-09-28T14:30:19.442Z,55.48
2022-09-28T14:33:26.616Z,55.16
2022-09-28T14:36:58.279Z,55.90
2022-09-28T14:40:27.608Z,56.60
2022-09-28T14:43:57.611Z,56.77
2022-09-28T14:47:36.404Z,57.18
2022-09-28T14:50:39.547Z,57.85
2022-09-28T14:53:42.396Z,57.77
2022-09-28T14:56:58.972Z,57.70
2022-09-28T15:00:14.548Z,57.39
2022-09-28T15:03:18.265Z,57.80
2022-09-28T15:06:25.155Z,59.12
2022-09-28T15:09:31.876Z,58.30
2022-09-28T15:12:35.508Z,58.06
2022-09-28T15:15:41.417Z,58.11
2022-09-28T15:19:08.716Z,58.85
2022-09-28T15:22:16.614Z,59.13
2022-09-28T15:25:22.384Z,60.39
2022-09-28T15:28:25.331Z,60.73
2022-09-28T15:31:35.184Z,61.88
2022-09-28T15:34:54.738Z,63.02
2022-09-28T15:37:57.672Z,64.21
2022-09-28T15:41:05.820Z,66.50
2022-09-28T15:44:11.456Z,66.02
2022-09-28T15:47:25.108Z,65.86
2022-09-28T15:50:30.097Z,66.81
2022-09-28T15:53:34.001Z,66.58
2022-09-28T15:56:54.842Z,66.75
2022-09-28T15:59:59.392Z,66.97
2022-09-28T16:03:09.708Z,66.93
2022-09-28T16:06:13.916Z,67.14
2022-09-28T16:09:38.928Z,66.80
2022-09-28T16:12:54.359Z,70.43
2022-09-28T16:16:00.324Z,70.82
2022-09-28T16:19:07.400Z,71.52
2022-09-28T16:22:20.596Z,70.73
2022-09-28T16:25:27.095Z,70.45
2022-09-28T16:28:34.608Z,70.23
2022-09-28T16:31:41.561Z,70.66
2022-09-28T16:34:44.558Z,70.10
2022-09-28T16:38:04.425Z,72.35
2022-09-28T16:41:08.960Z,74.87
2022-09-28T16:44:17.868Z,76.20
2022-09-28T16:47:20.440Z,76.48
2022-09-28T16:50:26.140Z,77.18
2022-09-28T16:53:47.227Z,76.70
2022-09-28T16:56:50.314Z,75.94
2022-09-28T16:59:52.908Z,74.83
2022-09-28T17:02:57.267Z,74.56
2022-09-28T17:05:59.979Z,75.41
2022-09-28T17:09:09.447Z,78.04
2022-09-28T17:12:24.661Z,77.65
2022-09-28T17:15:27.657Z,77.85
2022-09-28T17:18:33.623Z,77.34
2022-09-28T17:21:36.706Z,76.92
2022-09-28T17:24:39.914Z,77.69
2022-09-28T17:27:47.655Z,79.41
2022-09-28T17:30:50.228Z,80.99
2022-09-28T17:33:54.516Z,80.97
2022-09-28T17:36:57.190Z,82.15
2022-09-28T17:40:00.360Z,82.96
2022-09-28T17:43:05.706Z,83.29
2022-09-28T17:46:29.132Z,82.98
2022-09-28T17:49:32.134Z,82.61
2022-09-28T17:52:34.964Z,82.46
2022-09-28T17:55:39.146Z,83.14
2022-09-28T17:58:42.099Z,83.92
2022-09-28T18:01:44.868Z,83.54
2022-09-28T18:04:52.091Z,83.10
2022-09-28T18:07:56.013Z,82.55
2022-09-28T18:10:59.136Z,82.08
2022-09-28T18:14:01.688Z,82.44
2022-09-28T18:17:04.608Z,81.14
2022-09-28T18:20:09.427Z,80.82
2022-09-28T18:23:12.285Z,80.95
2022-09-28T18:26:17.023Z,81.64
2022-09-28T18:29:19.999Z,82.04
2022-09-28T18:32:23.669Z,82.76
2022-09-28T18:35:26.682Z,82.60
2022-09-28T18:38:29.267Z,83.53
2022-09-28T18:41:32.608Z,84.67
2022-09-28T18:44:35.267Z,85.26
2022-09-28T18:47:39.291Z,85.02
2022-09-28T18:50:42.840Z,86.54
2022-09-28T18:53:46.251Z,86.84
2022-09-28T18:56:50.352Z,87.12
2022-09-28T18:59:53.327Z,86.43
2022-09-28T19:02:55.952Z,87.36
2022-09-28T19:05:58.996Z,87.35
2022-09-28T19:09:02.407Z,87.84
2022-09-28T19:12:05.335Z,88.18
2022-09-28T19:15:08.099Z,88.49
2022-09-28T19:18:10.925Z,89.41
2022-09-28T19:21:15.080Z,88.77
2022-09-28T19:24:19.767Z,88.50
2022-09-28T19:27:22.500Z,88.34
2022-09-28T19:30:25.440Z,88.92
2022-09-28T19:33:28.126Z,90.25
2022-09-28T19:36:31.237Z,90.96
2022-09-28T19:39:34.617Z,91.20
2022-09-28T19:42:39.607Z,92.87
2022-09-28T19:45:42.832Z,94.03
2022-09-28T19:48:45.671Z,94.11
2022-09-28T19:55:13.365Z,94.01
2022-09-28T19:58:16.292Z,94.49
2022-09-28T20:01:19.309Z,94.28
2022-09-28T20:04:23.121Z,93.44
2022-09-28T20:07:25.644Z,92.62
2022-09-28T20:10:28.456Z,94.95
2022-09-28T20:13:33.723Z,95.30
2022-09-28T20:16:37.025Z,94.81
2022-09-28T20:19:39.688Z,93.84
2022-09-28T20:22:43.942Z,93.07
2022-09-28T20:25:46.533Z,92.88
2022-09-28T20:28:49.425Z,93.70
2022-09-28T20:31:52.161Z,93.61
2022-09-28T20:34:55.047Z,92.76
2022-09-28T20:37:59.240Z,91.75
2022-09-28T20:41:02.613Z,92.15
2022-09-28T20:44:06.760Z,93.08
2022-09-28T20:47:09.719Z,92.54
2022-09-28T20:50:12.567Z,93.10
2022-09-28T20:53:15.413Z,93.15
2022-09-28T20:56:20.997Z,93.40
2022-09-28T20:59:26.447Z,93.26
2022-09-28T21:02:29.027Z,93.12
2022-09-28T21:05:31.837Z,93.07
2022-09-28T21:08:34.410Z,93.79
2022-09-28T21:11:38.932Z,93.39
2022-09-28T21:14:41.419Z,94.24
2022-09-28T21:17:44.398Z,93.93
2022-09-28T21:20:51.360Z,93.78
2022-09-28T21:23:57.877Z,93.64
2022-09-28T21:27:00.391Z,94.19
2022-09-28T21:30:03.519Z,94.57
2022-09-28T21:33:06.423Z,94.84
2022-09-28T21:36:10.527Z,94.73
2022-09-28T21:39:15.922Z,94.09
2022-09-28T21:42:18.699Z,94.22
2022-09-28T21:45:21.436Z,93.98
2022-09-28T21:48:27.347Z,93.81
2022-09-28T21:51:30.764Z,93.83
2022-09-28T21:54:37.281Z,94.07
2022-09-28T21:57:39.848Z,94.18
2022-09-28T22:00:42.750Z,94.44
2022-09-28T22:03:50.923Z,94.35
2022-09-28T22:06:53.642Z,94.92
2022-09-28T22:09:56.483Z,94.83
2022-09-28T22:12:58.991Z,96.00
2022-09-28T22:16:02.545Z,97.09
2022-09-28T22:19:05.230Z,97.69
2022-09-28T22:22:08.676Z,97.37
2022-09-28T22:25:11.287Z,97.13
2022-09-28T22:28:14.186Z,98.29
2022-09-28T22:31:18.299Z,98.54
2022-09-28T22:34:21.235Z,98.72
2022-09-28T22:37:28.013Z,99.35
2022-09-28T22:40:30.794Z,99.62
2022-09-28T22:43:33.406Z,100.00
2022-09-28T22:46:36.448Z,100.00
2022-09-28T22:49:39.373Z,100.00
2022-09-28T22:52:42.215Z,100.00
2022-09-28T22:55:45.272Z,100.00
2022-09-28T22:58:48.283Z,100.00
2022-09-28T23:01:50.961Z,100.00
2022-09-28T23:04:53.887Z,100.00
2022-09-28T23:07:56.762Z,99.48
2022-09-28T23:11:00.002Z,98.88
2022-09-28T23:14:04.385Z,97.24
2022-09-28T23:17:07.295Z,97.44
2022-09-28T23:20:09.952Z,97.02
2022-09-28T23:23:13.381Z,96.88
2022-09-28T23:26:18.568Z,96.16
2022-09-28T23:29:21.637Z,96.33
2022-09-28T23:32:27.486Z,96.83
2022-09-28T23:35:33.800Z,97.25
2022-09-28T23:38:36.717Z,98.07
2022-09-28T23:41:39.972Z,97.83
2022-09-28T23:44:42.622Z,98.32
2022-09-28T23:47:45.683Z,98.18
2022-09-28T23:50:48.360Z,98.91
2022-09-28T23:53:51.221Z,99.37
2022-09-28T23:56:53.915Z,99.37
2022-09-28T23:59:56.831Z,98.87
